sensor_id;sensor_type;location;lat;lon;timestamp;temperature;humidity
5683;DHT22;2864;49.220;8.654;2022-09-17T00:00:39;10.40;99.90
5683;DHT22;2864;49.220;8.654;2022-09-17T00:03:06;10.30;99.90
5683;DHT22;2864;49.220;8.654;2022-09-17T00:05:32;10.30;99.90
5683;DHT22;2864;49.220;8.654;2022-09-17T00:07:57;10.20;99.90
5683;DHT22;2864;49.220;8.654;2022-09-17T00:10:23;10.10;99.90
5683;DHT22;2864;49.220;8.654;2022-09-17T00:12:49;10.10;99.90
5683;DHT22;2864;49.220;8.654;2022-09-17T00:15:16;10.90;99.90
5683;DHT22;2864;49.220;8.654;2022-09-17T00:17:42;10.00;99.90
5683;DHT22;2864;49.220;8.654;2022-09-17T00:20:08;10.00;99.90
5683;DHT22;2864;49.220;8.654;2022-09-17T00:22:38;9.10;99.90
5683;DHT22;2864;49.220;8.654;2022-09-17T00:25:06;10.30;99.90
5683;DHT22;2864;49.220;8.654;2022-09-17T00:27:32;10.00;99.90
5683;DHT22;2864;49.220;8.654;2022-09-17T00:29:58;10.00;99.90
5683;DHT22;2864;49.220;8.654;2022-09-17T00:32:23;10.10;99.90
5683;DHT22;2864;49.220;8.654;2022-09-17T00:34:50;10.10;99.90
5683;DHT22;2864;49.220;8.654;2022-09-17T00:37:17;10.10;99.90
5683;DHT22;2864;49.220;8.654;2022-09-17T00:39:43;10.10;99.90
5683;DHT22;2864;49.220;8.654;2022-09-17T00:42:11;10.10;99.90
5683;DHT22;2864;49.220;8.654;2022-09-17T00:44:50;10.00;99.90
5683;DHT22;2864;49.220;8.654;2022-09-17T00:47:34;10.00;99.90
5683;DHT22;2864;49.220;8.654;2022-09-17T00:52:49;9.90;99.90
5683;DHT22;2864;49.220;8.654;2022-09-17T00:55:20;9.90;99.90
5683;DHT22;2864;49.220;8.654;2022-09-17T00:57:48;9.90;99.90
5683;DHT22;2864;49.220;8.654;2022-09-17T01:00:16;10.00;99.90
5683;DHT22;2864;49.220;8.654;2022-09-17T01:02:42;10.00;99.90
5683;DHT22;2864;49.220;8.654;2022-09-17T01:05:09;10.10;99.90
5683;DHT22;2864;49.220;8.654;2022-09-17T01:07:52;10.10;99.90
5683;DHT22;2864;49.220;8.654;2022-09-17T01:10:35;10.00;99.90
5683;DHT22;2864;49.220;8.654;2022-09-17T01:13:18;10.00;99.90
5683;DHT22;2864;49.220;8.654;2022-09-17T01:18:38;10.00;99.90
5683;DHT22;2864;49.220;8.654;2022-09-17T01:24:49;11.30;99.90
5683;DHT22;2864;49.220;8.654;2022-09-17T01:40:55;9.70;99.90
5683;DHT22;2864;49.220;8.654;2022-09-17T01:43:28;9.70;99.90
5683;DHT22;2864;49.220;8.654;2022-09-17T01:46:29;9.60;99.90
5683;DHT22;2864;49.220;8.654;2022-09-17T01:48:59;9.40;99.90
5683;DHT22;2864;49.220;8.654;2022-09-17T01:51:29;9.30;99.90
5683;DHT22;2864;49.220;8.654;2022-09-17T01:54:02;9.20;99.90
5683;DHT22;2864;49.220;8.654;2022-09-17T01:56:39;9.20;99.90
5683;DHT22;2864;49.220;8.654;2022-09-17T01:59:17;9.20;99.90
5683;DHT22;2864;49.220;8.654;2022-09-17T02:01:46;10.90;99.90
5683;DHT22;2864;49.220;8.654;2022-09-17T02:07:26;9.30;99.90
5683;DHT22;2864;49.220;8.654;2022-09-17T02:09:57;9.20;99.90
5683;DHT22;2864;49.220;8.654;2022-09-17T02:12:30;9.10;99.90
5683;DHT22;2864;49.220;8.654;2022-09-17T02:14:57;9.00;99.90
5683;DHT22;2864;49.220;8.654;2022-09-17T02:17:45;8.90;99.90
5683;DHT22;2864;49.220;8.654;2022-09-17T02:20:14;8.80;99.90
5683;DHT22;2864;49.220;8.654;2022-09-17T02:22:54;8.70;99.90
5683;DHT22;2864;49.220;8.654;2022-09-17T02:25:30;8.80;99.90
5683;DHT22;2864;49.220;8.654;2022-09-17T02:28:11;8.80;99.90
5683;DHT22;2864;49.220;8.654;2022-09-17T02:30:39;8.80;99.90
5683;DHT22;2864;49.220;8.654;2022-09-17T02:33:07;8.70;99.90
5683;DHT22;2864;49.220;8.654;2022-09-17T02:35:34;8.60;99.90
5683;DHT22;2864;49.220;8.654;2022-09-17T02:38:02;8.50;99.90
5683;DHT22;2864;49.220;8.654;2022-09-17T02:40:31;8.50;99.90
5683;DHT22;2864;49.220;8.654;2022-09-17T02:45:52;8.50;99.90
5683;DHT22;2864;49.220;8.654;2022-09-17T02:51:39;8.50;99.90
5683;DHT22;2864;49.220;8.654;2022-09-17T02:54:30;8.40;99.90
5683;DHT22;2864;49.220;8.654;2022-09-17T02:59:55;8.20;99.90
5683;DHT22;2864;49.220;8.654;2022-09-17T03:02:40;8.10;99.90
5683;DHT22;2864;49.220;8.654;2022-09-17T03:05:08;8.00;99.90
5683;DHT22;2864;49.220;8.654;2022-09-17T03:07:34;8.00;99.90
5683;DHT22;2864;49.220;8.654;2022-09-17T03:10:00;7.90;99.90
5683;DHT22;2864;49.220;8.654;2022-09-17T03:12:26;7.90;99.90
5683;DHT22;2864;49.220;8.654;2022-09-17T03:14:52;7.90;99.90
5683;DHT22;2864;49.220;8.654;2022-09-17T03:17:17;7.90;99.90
5683;DHT22;2864;49.220;8.654;2022-09-17T03:19:43;7.80;99.90
5683;DHT22;2864;49.220;8.654;2022-09-17T03:22:08;7.80;99.90
5683;DHT22;2864;49.220;8.654;2022-09-17T03:24:34;7.80;99.90
5683;DHT22;2864;49.220;8.654;2022-09-17T03:27:00;8.00;99.90
5683;DHT22;2864;49.220;8.654;2022-09-17T03:29:25;7.80;99.90
5683;DHT22;2864;49.220;8.654;2022-09-17T03:31:51;8.10;99.90
5683;DHT22;2864;49.220;8.654;2022-09-17T03:34:16;8.20;99.90
5683;DHT22;2864;49.220;8.654;2022-09-17T03:36:42;8.20;99.90
5683;DHT22;2864;49.220;8.654;2022-09-17T03:39:07;8.20;99.90
5683;DHT22;2864;49.220;8.654;2022-09-17T03:41:33;8.20;99.90
5683;DHT22;2864;49.220;8.654;2022-09-17T03:43:59;8.30;99.90
5683;DHT22;2864;49.220;8.654;2022-09-17T03:46:24;8.10;99.90
5683;DHT22;2864;49.220;8.654;2022-09-17T03:48:50;8.00;99.90
5683;DHT22;2864;49.220;8.654;2022-09-17T03:51:15;8.00;99.90
5683;DHT22;2864;49.220;8.654;2022-09-17T03:53:41;8.00;99.90
5683;DHT22;2864;49.220;8.654;2022-09-17T03:56:06;8.10;99.90
5683;DHT22;2864;49.220;8.654;2022-09-17T03:58:33;8.00;99.90
5683;DHT22;2864;49.220;8.654;2022-09-17T04:00:59;7.20;99.90
5683;DHT22;2864;49.220;8.654;2022-09-17T04:03:26;8.10;99.90
5683;DHT22;2864;49.220;8.654;2022-09-17T04:05:52;8.10;99.90
5683;DHT22;2864;49.220;8.654;2022-09-17T04:08:18;8.10;99.90
5683;DHT22;2864;49.220;8.654;2022-09-17T04:10:44;8.20;99.90
5683;DHT22;2864;49.220;8.654;2022-09-17T04:13:10;8.30;99.90
5683;DHT22;2864;49.220;8.654;2022-09-17T04:15:36;8.40;99.90
5683;DHT22;2864;49.220;8.654;2022-09-17T04:18:02;8.50;99.90
5683;DHT22;2864;49.220;8.654;2022-09-17T04:20:28;8.50;99.90
5683;DHT22;2864;49.220;8.654;2022-09-17T04:22:54;8.50;99.90
5683;DHT22;2864;49.220;8.654;2022-09-17T04:25:19;8.50;99.90
5683;DHT22;2864;49.220;8.654;2022-09-17T04:27:45;8.50;99.90
5683;DHT22;2864;49.220;8.654;2022-09-17T04:30:12;8.50;99.90
5683;DHT22;2864;49.220;8.654;2022-09-17T04:32:39;8.50;99.90
5683;DHT22;2864;49.220;8.654;2022-09-17T04:35:04;8.50;99.90
5683;DHT22;2864;49.220;8.654;2022-09-17T04:37:30;8.50;99.90
5683;DHT22;2864;49.220;8.654;2022-09-17T04:39:55;8.50;99.90
5683;DHT22;2864;49.220;8.654;2022-09-17T04:42:21;8.50;99.90
5683;DHT22;2864;49.220;8.654;2022-09-17T04:44:47;8.50;99.90
5683;DHT22;2864;49.220;8.654;2022-09-17T04:47:12;8.70;99.90
5683;DHT22;2864;49.220;8.654;2022-09-17T04:49:38;8.70;99.90
5683;DHT22;2864;49.220;8.654;2022-09-17T04:52:04;8.70;99.90
5683;DHT22;2864;49.220;8.654;2022-09-17T04:54:30;8.70;99.90
5683;DHT22;2864;49.220;8.654;2022-09-17T04:56:55;8.70;99.90
5683;DHT22;2864;49.220;8.654;2022-09-17T04:59:22;8.70;99.90
5683;DHT22;2864;49.220;8.654;2022-09-17T05:01:47;8.90;99.90
5683;DHT22;2864;49.220;8.654;2022-09-17T05:04:13;9.30;99.90
5683;DHT22;2864;49.220;8.654;2022-09-17T05:06:39;8.80;99.90
5683;DHT22;2864;49.220;8.654;2022-09-17T05:09:05;8.80;99.90
5683;DHT22;2864;49.220;8.654;2022-09-17T05:11:30;8.80;99.90
5683;DHT22;2864;49.220;8.654;2022-09-17T05:13:56;8.90;99.90
5683;DHT22;2864;49.220;8.654;2022-09-17T05:16:21;8.90;99.90
5683;DHT22;2864;49.220;8.654;2022-09-17T05:18:47;8.90;99.90
5683;DHT22;2864;49.220;8.654;2022-09-17T05:21:14;8.90;99.90
5683;DHT22;2864;49.220;8.654;2022-09-17T05:23:39;9.00;99.90
5683;DHT22;2864;49.220;8.654;2022-09-17T05:26:05;9.00;99.90
5683;DHT22;2864;49.220;8.654;2022-09-17T05:28:30;9.00;99.90
5683;DHT22;2864;49.220;8.654;2022-09-17T05:30:59;9.10;99.90
5683;DHT22;2864;49.220;8.654;2022-09-17T05:33:25;9.10;99.90
5683;DHT22;2864;49.220;8.654;2022-09-17T05:35:51;9.10;99.90
5683;DHT22;2864;49.220;8.654;2022-09-17T05:38:17;9.10;99.90
5683;DHT22;2864;49.220;8.654;2022-09-17T05:40:46;9.20;99.90
5683;DHT22;2864;49.220;8.654;2022-09-17T05:43:14;9.20;99.90
5683;DHT22;2864;49.220;8.654;2022-09-17T05:45:39;9.30;99.90
5683;DHT22;2864;49.220;8.654;2022-09-17T05:48:08;9.20;99.90
5683;DHT22;2864;49.220;8.654;2022-09-17T05:50:34;9.30;99.90
5683;DHT22;2864;49.220;8.654;2022-09-17T05:53:04;9.30;99.90
5683;DHT22;2864;49.220;8.654;2022-09-17T05:55:30;9.30;99.90
5683;DHT22;2864;49.220;8.654;2022-09-17T05:57:56;9.20;99.90
5683;DHT22;2864;49.220;8.654;2022-09-17T06:00:21;9.20;99.90
5683;DHT22;2864;49.220;8.654;2022-09-17T06:02:53;9.20;99.90
5683;DHT22;2864;49.220;8.654;2022-09-17T06:05:19;9.20;99.90
5683;DHT22;2864;49.220;8.654;2022-09-17T06:07:44;9.20;99.90
5683;DHT22;2864;49.220;8.654;2022-09-17T06:10:10;9.20;99.90
5683;DHT22;2864;49.220;8.654;2022-09-17T06:12:35;9.20;99.90
5683;DHT22;2864;49.220;8.654;2022-09-17T06:15:02;9.30;99.90
5683;DHT22;2864;49.220;8.654;2022-09-17T06:17:32;9.20;99.90
5683;DHT22;2864;49.220;8.654;2022-09-17T06:19:58;9.20;99.90
5683;DHT22;2864;49.220;8.654;2022-09-17T06:22:24;9.20;99.90
5683;DHT22;2864;49.220;8.654;2022-09-17T06:24:49;9.30;99.90
5683;DHT22;2864;49.220;8.654;2022-09-17T06:27:15;9.40;99.90
5683;DHT22;2864;49.220;8.654;2022-09-17T06:29:40;9.30;99.90
5683;DHT22;2864;49.220;8.654;2022-09-17T06:32:07;9.40;99.90
5683;DHT22;2864;49.220;8.654;2022-09-17T06:34:37;9.40;99.90
5683;DHT22;2864;49.220;8.654;2022-09-17T06:37:03;10.50;99.90
5683;DHT22;2864;49.220;8.654;2022-09-17T06:39:29;10.80;99.90
5683;DHT22;2864;49.220;8.654;2022-09-17T06:41:54;10.40;99.90
5683;DHT22;2864;49.220;8.654;2022-09-17T06:44:20;9.80;99.90
5683;DHT22;2864;49.220;8.654;2022-09-17T06:46:48;10.30;99.90
5683;DHT22;2864;49.220;8.654;2022-09-17T06:49:14;9.80;99.90
5683;DHT22;2864;49.220;8.654;2022-09-17T06:51:42;9.80;99.90
5683;DHT22;2864;49.220;8.654;2022-09-17T06:54:08;9.80;99.90
5683;DHT22;2864;49.220;8.654;2022-09-17T06:56:33;9.90;99.90
5683;DHT22;2864;49.220;8.654;2022-09-17T06:58:59;10.60;99.90
5683;DHT22;2864;49.220;8.654;2022-09-17T07:04:56;10.20;99.90
5683;DHT22;2864;49.220;8.654;2022-09-17T07:07:22;10.20;99.90
5683;DHT22;2864;49.220;8.654;2022-09-17T07:09:47;10.00;99.90
5683;DHT22;2864;49.220;8.654;2022-09-17T07:12:13;10.10;99.90
5683;DHT22;2864;49.220;8.654;2022-09-17T07:14:38;10.20;99.90
5683;DHT22;2864;49.220;8.654;2022-09-17T07:17:04;10.20;99.90
5683;DHT22;2864;49.220;8.654;2022-09-17T07:19:29;10.20;99.90
5683;DHT22;2864;49.220;8.654;2022-09-17T07:21:55;10.30;99.90
5683;DHT22;2864;49.220;8.654;2022-09-17T07:24:20;10.40;99.90
5683;DHT22;2864;49.220;8.654;2022-09-17T07:26:49;10.50;99.90
5683;DHT22;2864;49.220;8.654;2022-09-17T07:29:15;10.70;99.90
5683;DHT22;2864;49.220;8.654;2022-09-17T07:31:40;10.80;99.90
5683;DHT22;2864;49.220;8.654;2022-09-17T07:34:06;10.80;99.90
5683;DHT22;2864;49.220;8.654;2022-09-17T07:36:31;10.80;99.90
5683;DHT22;2864;49.220;8.654;2022-09-17T07:38:57;10.90;99.90
5683;DHT22;2864;49.220;8.654;2022-09-17T07:41:22;10.80;99.90
5683;DHT22;2864;49.220;8.654;2022-09-17T07:43:51;10.90;99.90
5683;DHT22;2864;49.220;8.654;2022-09-17T07:46:18;10.80;99.90
5683;DHT22;2864;49.220;8.654;2022-09-17T07:48:45;10.80;99.90
5683;DHT22;2864;49.220;8.654;2022-09-17T07:51:20;11.70;99.90
5683;DHT22;2864;49.220;8.654;2022-09-17T07:53:46;11.00;99.90
5683;DHT22;2864;49.220;8.654;2022-09-17T07:56:14;11.00;99.90
5683;DHT22;2864;49.220;8.654;2022-09-17T07:58:40;11.00;99.90
5683;DHT22;2864;49.220;8.654;2022-09-17T08:01:08;11.10;99.90
5683;DHT22;2864;49.220;8.654;2022-09-17T08:03:35;11.30;99.90
5683;DHT22;2864;49.220;8.654;2022-09-17T08:06:05;11.20;99.90
5683;DHT22;2864;49.220;8.654;2022-09-17T08:08:32;11.20;99.90
5683;DHT22;2864;49.220;8.654;2022-09-17T08:11:01;11.20;99.90
5683;DHT22;2864;49.220;8.654;2022-09-17T08:13:28;11.20;99.90
5683;DHT22;2864;49.220;8.654;2022-09-17T08:15:57;11.40;99.90
5683;DHT22;2864;49.220;8.654;2022-09-17T08:18:23;12.00;99.90
5683;DHT22;2864;49.220;8.654;2022-09-17T08:20:49;11.70;99.90
5683;DHT22;2864;49.220;8.654;2022-09-17T08:23:14;11.80;99.90
5683;DHT22;2864;49.220;8.654;2022-09-17T08:25:40;12.00;99.90
5683;DHT22;2864;49.220;8.654;2022-09-17T08:28:05;12.00;99.90
5683;DHT22;2864;49.220;8.654;2022-09-17T08:30:31;12.00;99.90
5683;DHT22;2864;49.220;8.654;2022-09-17T08:32:57;12.20;99.90
5683;DHT22;2864;49.220;8.654;2022-09-17T08:35:23;12.20;99.90
5683;DHT22;2864;49.220;8.654;2022-09-17T08:37:53;12.30;99.90
5683;DHT22;2864;49.220;8.654;2022-09-17T08:40:20;12.70;99.90
5683;DHT22;2864;49.220;8.654;2022-09-17T08:42:59;12.60;99.90
5683;DHT22;2864;49.220;8.654;2022-09-17T08:45:27;12.40;99.90
5683;DHT22;2864;49.220;8.654;2022-09-17T08:48:01;12.60;99.90
5683;DHT22;2864;49.220;8.654;2022-09-17T08:50:34;12.70;99.90
5683;DHT22;2864;49.220;8.654;2022-09-17T08:59:37;13.00;99.90
5683;DHT22;2864;49.220;8.654;2022-09-17T09:05:19;13.00;99.90
5683;DHT22;2864;49.220;8.654;2022-09-17T09:07:51;13.20;99.90
5683;DHT22;2864;49.220;8.654;2022-09-17T09:12:49;13.60;99.90
5683;DHT22;2864;49.220;8.654;2022-09-17T09:15:32;13.60;99.90
5683;DHT22;2864;49.220;8.654;2022-09-17T09:18:21;13.70;99.90
5683;DHT22;2864;49.220;8.654;2022-09-17T09:20:56;13.70;99.90
5683;DHT22;2864;49.220;8.654;2022-09-17T09:23:44;13.80;99.90
5683;DHT22;2864;49.220;8.654;2022-09-17T09:26:20;14.00;99.90
5683;DHT22;2864;49.220;8.654;2022-09-17T09:29:08;14.20;99.90
5683;DHT22;2864;49.220;8.654;2022-09-17T09:34:05;14.10;99.90
5683;DHT22;2864;49.220;8.654;2022-09-17T09:36:32;14.30;99.90
5683;DHT22;2864;49.220;8.654;2022-09-17T09:39:02;13.80;99.90
5683;DHT22;2864;49.220;8.654;2022-09-17T09:41:35;15.10;99.90
5683;DHT22;2864;49.220;8.654;2022-09-17T09:44:09;13.50;99.90
5683;DHT22;2864;49.220;8.654;2022-09-17T09:54:58;14.30;99.90
5683;DHT22;2864;49.220;8.654;2022-09-17T09:57:51;14.20;99.90
5683;DHT22;2864;49.220;8.654;2022-09-17T10:00:30;14.60;99.90
5683;DHT22;2864;49.220;8.654;2022-09-17T10:08:17;14.70;99.90
5683;DHT22;2864;49.220;8.654;2022-09-17T10:11:05;14.80;99.90
5683;DHT22;2864;49.220;8.654;2022-09-17T10:13:33;14.60;99.30
5683;DHT22;2864;49.220;8.654;2022-09-17T10:16:19;14.20;99.20
5683;DHT22;2864;49.220;8.654;2022-09-17T10:18:46;14.10;99.90
5683;DHT22;2864;49.220;8.654;2022-09-17T10:21:30;13.90;99.80
5683;DHT22;2864;49.220;8.654;2022-09-17T10:23:56;14.00;99.90
5683;DHT22;2864;49.220;8.654;2022-09-17T10:26:30;14.30;99.90
5683;DHT22;2864;49.220;8.654;2022-09-17T10:29:02;14.30;99.90
5683;DHT22;2864;49.220;8.654;2022-09-17T10:36:47;15.00;99.90
5683;DHT22;2864;49.220;8.654;2022-09-17T10:44:33;14.50;99.90
5683;DHT22;2864;49.220;8.654;2022-09-17T10:47:21;15.00;99.90
5683;DHT22;2864;49.220;8.654;2022-09-17T10:49:58;14.20;99.90
5683;DHT22;2864;49.220;8.654;2022-09-17T10:52:35;14.20;99.50
5683;DHT22;2864;49.220;8.654;2022-09-17T10:55:17;14.40;99.40
5683;DHT22;2864;49.220;8.654;2022-09-17T11:17:08;16.30;95.40
5683;DHT22;2864;49.220;8.654;2022-09-17T11:20:03;15.80;94.80
5683;DHT22;2864;49.220;8.654;2022-09-17T11:30:48;14.80;98.00
5683;DHT22;2864;49.220;8.654;2022-09-17T11:36:21;14.70;99.40
5683;DHT22;2864;49.220;8.654;2022-09-17T11:38:49;14.50;99.60
5683;DHT22;2864;49.220;8.654;2022-09-17T11:41:22;14.60;99.90
5683;DHT22;2864;49.220;8.654;2022-09-17T11:49:11;14.90;97.80
5683;DHT22;2864;49.220;8.654;2022-09-17T11:51:44;15.20;96.20
5683;DHT22;2864;49.220;8.654;2022-09-17T11:54:28;15.20;96.90
5683;DHT22;2864;49.220;8.654;2022-09-17T11:57:16;15.30;93.90
5683;DHT22;2864;49.220;8.654;2022-09-17T11:59:51;15.50;95.40
5683;DHT22;2864;49.220;8.654;2022-09-17T12:05:13;15.50;94.70
5683;DHT22;2864;49.220;8.654;2022-09-17T12:13:13;15.70;92.30
5683;DHT22;2864;49.220;8.654;2022-09-17T12:15:44;15.70;93.70
5683;DHT22;2864;49.220;8.654;2022-09-17T12:20:46;15.30;94.40
5683;DHT22;2864;49.220;8.654;2022-09-17T12:23:17;15.30;94.60
5683;DHT22;2864;49.220;8.654;2022-09-17T12:25:54;15.30;95.60
5683;DHT22;2864;49.220;8.654;2022-09-17T12:28:37;15.20;95.60
5683;DHT22;2864;49.220;8.654;2022-09-17T12:35:04;15.10;96.50
5683;DHT22;2864;49.220;8.654;2022-09-17T12:42:56;15.60;96.80
5683;DHT22;2864;49.220;8.654;2022-09-17T12:45:56;15.50;95.70
5683;DHT22;2864;49.220;8.654;2022-09-17T12:53:41;17.20;92.70
5683;DHT22;2864;49.220;8.654;2022-09-17T12:56:22;17.60;91.70
5683;DHT22;2864;49.220;8.654;2022-09-17T12:59:10;18.60;90.20
5683;DHT22;2864;49.220;8.654;2022-09-17T13:01:42;18.20;90.20
5683;DHT22;2864;49.220;8.654;2022-09-17T13:04:33;17.20;91.40
5683;DHT22;2864;49.220;8.654;2022-09-17T13:12:29;19.60;83.90
5683;DHT22;2864;49.220;8.654;2022-09-17T13:15:18;20.00;82.90
5683;DHT22;2864;49.220;8.654;2022-09-17T13:20:30;21.70;77.90
5683;DHT22;2864;49.220;8.654;2022-09-17T13:22:57;22.40;73.70
5683;DHT22;2864;49.220;8.654;2022-09-17T13:25:24;22.90;71.90
5683;DHT22;2864;49.220;8.654;2022-09-17T13:28:03;23.10;69.70
5683;DHT22;2864;49.220;8.654;2022-09-17T13:36:36;22.30;68.70
5683;DHT22;2864;49.220;8.654;2022-09-17T13:39:05;22.50;69.80
5683;DHT22;2864;49.220;8.654;2022-09-17T13:41:34;20.90;70.60
5683;DHT22;2864;49.220;8.654;2022-09-17T13:44:05;19.80;72.40
5683;DHT22;2864;49.220;8.654;2022-09-17T13:46:33;18.70;74.50
5683;DHT22;2864;49.220;8.654;2022-09-17T13:49:04;17.10;76.60
5683;DHT22;2864;49.220;8.654;2022-09-17T13:54:06;16.20;81.90
5683;DHT22;2864;49.220;8.654;2022-09-17T13:56:45;16.30;83.00
5683;DHT22;2864;49.220;8.654;2022-09-17T14:02:25;18.80;78.40
5683;DHT22;2864;49.220;8.654;2022-09-17T14:05:27;19.20;77.10
5683;DHT22;2864;49.220;8.654;2022-09-17T14:08:12;19.70;77.40
5683;DHT22;2864;49.220;8.654;2022-09-17T14:10:42;19.60;74.70
5683;DHT22;2864;49.220;8.654;2022-09-17T14:13:42;18.40;77.70
5683;DHT22;2864;49.220;8.654;2022-09-17T14:32:29;18.60;78.50
5683;DHT22;2864;49.220;8.654;2022-09-17T14:35:11;21.50;76.40
5683;DHT22;2864;49.220;8.654;2022-09-17T14:37:39;24.30;69.70
5683;DHT22;2864;49.220;8.654;2022-09-17T14:40:10;22.70;67.20
5683;DHT22;2864;49.220;8.654;2022-09-17T14:42:39;23.50;64.40
5683;DHT22;2864;49.220;8.654;2022-09-17T14:45:15;21.70;67.30
5683;DHT22;2864;49.220;8.654;2022-09-17T14:47:41;22.50;65.70
5683;DHT22;2864;49.220;8.654;2022-09-17T14:50:23;21.30;66.60
5683;DHT22;2864;49.220;8.654;2022-09-17T14:52:51;21.40;67.00
5683;DHT22;2864;49.220;8.654;2022-09-17T14:55:26;22.70;65.70
5683;DHT22;2864;49.220;8.654;2022-09-17T14:57:58;24.40;65.20
5683;DHT22;2864;49.220;8.654;2022-09-17T15:00:34;25.30;62.60
5683;DHT22;2864;49.220;8.654;2022-09-17T15:03:00;26.20;60.10
5683;DHT22;2864;49.220;8.654;2022-09-17T15:08:15;22.60;61.30
5683;DHT22;2864;49.220;8.654;2022-09-17T15:13:17;24.90;59.40
5683;DHT22;2864;49.220;8.654;2022-09-17T15:16:21;23.50;58.50
5683;DHT22;2864;49.220;8.654;2022-09-17T15:18:53;21.50;61.20
5683;DHT22;2864;49.220;8.654;2022-09-17T15:21:38;19.40;62.30
5683;DHT22;2864;49.220;8.654;2022-09-17T15:26:42;17.00;68.60
5683;DHT22;2864;49.220;8.654;2022-09-17T15:29:12;16.30;70.30
5683;DHT22;2864;49.220;8.654;2022-09-17T15:31:38;16.20;71.90
5683;DHT22;2864;49.220;8.654;2022-09-17T15:34:04;16.00;73.10
5683;DHT22;2864;49.220;8.654;2022-09-17T15:36:30;15.90;74.50
5683;DHT22;2864;49.220;8.654;2022-09-17T15:39:28;15.80;75.90
5683;DHT22;2864;49.220;8.654;2022-09-17T15:41:56;15.50;77.90
5683;DHT22;2864;49.220;8.654;2022-09-17T15:44:25;15.30;79.00
5683;DHT22;2864;49.220;8.654;2022-09-17T15:46:52;15.40;79.90
5683;DHT22;2864;49.220;8.654;2022-09-17T15:49:34;15.30;80.60
5683;DHT22;2864;49.220;8.654;2022-09-17T15:52:27;15.10;81.80
5683;DHT22;2864;49.220;8.654;2022-09-17T15:54:56;14.90;83.20
5683;DHT22;2864;49.220;8.654;2022-09-17T15:57:22;14.80;81.50
5683;DHT22;2864;49.220;8.654;2022-09-17T15:59:49;14.70;82.30
5683;DHT22;2864;49.220;8.654;2022-09-17T16:02:27;14.70;82.90
5683;DHT22;2864;49.220;8.654;2022-09-17T16:07:40;14.70;80.60
5683;DHT22;2864;49.220;8.654;2022-09-17T16:10:07;14.70;78.10
5683;DHT22;2864;49.220;8.654;2022-09-17T16:12:33;14.70;77.30
5683;DHT22;2864;49.220;8.654;2022-09-17T16:14:59;14.60;77.50
5683;DHT22;2864;49.220;8.654;2022-09-17T16:19:53;14.40;77.40
5683;DHT22;2864;49.220;8.654;2022-09-17T16:22:20;14.40;78.30
5683;DHT22;2864;49.220;8.654;2022-09-17T16:24:47;14.60;78.30
5683;DHT22;2864;49.220;8.654;2022-09-17T16:27:23;14.50;78.70
5683;DHT22;2864;49.220;8.654;2022-09-17T16:29:50;14.40;80.00
5683;DHT22;2864;49.220;8.654;2022-09-17T16:32:17;14.20;81.30
5683;DHT22;2864;49.220;8.654;2022-09-17T16:34:42;14.20;82.60
5683;DHT22;2864;49.220;8.654;2022-09-17T16:37:09;14.00;83.10
5683;DHT22;2864;49.220;8.654;2022-09-17T16:39:35;13.90;84.10
5683;DHT22;2864;49.220;8.654;2022-09-17T16:42:01;13.80;85.40
5683;DHT22;2864;49.220;8.654;2022-09-17T16:44:27;13.60;87.00
5683;DHT22;2864;49.220;8.654;2022-09-17T16:46:52;13.60;88.10
5683;DHT22;2864;49.220;8.654;2022-09-17T16:49:18;13.50;89.00
5683;DHT22;2864;49.220;8.654;2022-09-17T16:51:43;13.40;89.60
5683;DHT22;2864;49.220;8.654;2022-09-17T16:54:09;13.40;90.10
5683;DHT22;2864;49.220;8.654;2022-09-17T16:56:35;13.40;90.50
5683;DHT22;2864;49.220;8.654;2022-09-17T16:59:00;13.30;90.90
5683;DHT22;2864;49.220;8.654;2022-09-17T17:01:26;13.30;91.20
5683;DHT22;2864;49.220;8.654;2022-09-17T17:03:52;13.30;91.50
5683;DHT22;2864;49.220;8.654;2022-09-17T17:06:19;13.30;91.70
5683;DHT22;2864;49.220;8.654;2022-09-17T17:08:45;13.30;92.10
5683;DHT22;2864;49.220;8.654;2022-09-17T17:11:11;13.30;92.60
5683;DHT22;2864;49.220;8.654;2022-09-17T17:13:37;13.20;92.80
5683;DHT22;2864;49.220;8.654;2022-09-17T17:16:10;13.20;93.00
5683;DHT22;2864;49.220;8.654;2022-09-17T17:18:36;13.20;93.50
5683;DHT22;2864;49.220;8.654;2022-09-17T17:21:10;13.20;93.90
5683;DHT22;2864;49.220;8.654;2022-09-17T17:23:36;13.20;94.20
5683;DHT22;2864;49.220;8.654;2022-09-17T17:26:02;13.10;94.70
5683;DHT22;2864;49.220;8.654;2022-09-17T17:28:35;13.10;94.90
5683;DHT22;2864;49.220;8.654;2022-09-17T17:31:01;13.10;95.40
5683;DHT22;2864;49.220;8.654;2022-09-17T17:33:27;13.10;95.50
5683;DHT22;2864;49.220;8.654;2022-09-17T17:35:53;13.10;95.30
5683;DHT22;2864;49.220;8.654;2022-09-17T17:38:19;13.20;95.30
5683;DHT22;2864;49.220;8.654;2022-09-17T17:40:45;13.20;93.90
5683;DHT22;2864;49.220;8.654;2022-09-17T17:43:11;13.20;93.60
5683;DHT22;2864;49.220;8.654;2022-09-17T17:48:05;13.20;92.90
5683;DHT22;2864;49.220;8.654;2022-09-17T17:50:31;13.20;92.20
5683;DHT22;2864;49.220;8.654;2022-09-17T17:52:57;13.20;92.20
5683;DHT22;2864;49.220;8.654;2022-09-17T17:55:23;13.20;92.40
5683;DHT22;2864;49.220;8.654;2022-09-17T17:57:56;13.20;92.40
5683;DHT22;2864;49.220;8.654;2022-09-17T18:00:22;13.20;92.70
5683;DHT22;2864;49.220;8.654;2022-09-17T18:02:49;13.10;93.30
5683;DHT22;2864;49.220;8.654;2022-09-17T18:05:15;13.00;94.20
5683;DHT22;2864;49.220;8.654;2022-09-17T18:07:41;12.90;94.70
5683;DHT22;2864;49.220;8.654;2022-09-17T18:10:07;12.80;94.70
5683;DHT22;2864;49.220;8.654;2022-09-17T18:12:32;12.70;94.90
5683;DHT22;2864;49.220;8.654;2022-09-17T18:14:58;12.70;95.50
5683;DHT22;2864;49.220;8.654;2022-09-17T18:17:24;12.60;95.80
5683;DHT22;2864;49.220;8.654;2022-09-17T18:19:49;12.50;96.40
5683;DHT22;2864;49.220;8.654;2022-09-17T18:22:17;12.40;96.90
5683;DHT22;2864;49.220;8.654;2022-09-17T18:24:43;12.30;97.70
5683;DHT22;2864;49.220;8.654;2022-09-17T18:27:09;12.10;98.50
5683;DHT22;2864;49.220;8.654;2022-09-17T18:29:34;12.00;99.30
5683;DHT22;2864;49.220;8.654;2022-09-17T18:32:00;11.90;99.90
5683;DHT22;2864;49.220;8.654;2022-09-17T18:34:26;11.80;99.90
5683;DHT22;2864;49.220;8.654;2022-09-17T18:36:52;11.80;99.90
5683;DHT22;2864;49.220;8.654;2022-09-17T18:39:18;13.20;99.90
5683;DHT22;2864;49.220;8.654;2022-09-17T18:41:45;11.70;99.90
5683;DHT22;2864;49.220;8.654;2022-09-17T18:44:11;11.60;99.90
5683;DHT22;2864;49.220;8.654;2022-09-17T18:46:37;11.50;99.90
5683;DHT22;2864;49.220;8.654;2022-09-17T18:49:03;11.60;99.60
5683;DHT22;2864;49.220;8.654;2022-09-17T18:51:29;12.60;99.70
5683;DHT22;2864;49.220;8.654;2022-09-17T18:53:57;11.60;97.80
5683;DHT22;2864;49.220;8.654;2022-09-17T18:56:28;11.60;97.40
5683;DHT22;2864;49.220;8.654;2022-09-17T18:58:56;11.70;96.50
5683;DHT22;2864;49.220;8.654;2022-09-17T19:01:25;11.70;95.90
5683;DHT22;2864;49.220;8.654;2022-09-17T19:03:53;11.70;95.90
5683;DHT22;2864;49.220;8.654;2022-09-17T19:06:18;11.70;95.20
5683;DHT22;2864;49.220;8.654;2022-09-17T19:08:44;11.70;95.10
5683;DHT22;2864;49.220;8.654;2022-09-17T19:11:11;11.70;95.00
5683;DHT22;2864;49.220;8.654;2022-09-17T19:13:43;11.70;94.90
5683;DHT22;2864;49.220;8.654;2022-09-17T19:16:10;11.60;94.80
5683;DHT22;2864;49.220;8.654;2022-09-17T19:18:36;11.60;94.60
5683;DHT22;2864;49.220;8.654;2022-09-17T19:21:04;11.60;94.50
5683;DHT22;2864;49.220;8.654;2022-09-17T19:23:30;11.60;94.20
5683;DHT22;2864;49.220;8.654;2022-09-17T19:26:06;11.50;94.10
5683;DHT22;2864;49.220;8.654;2022-09-17T19:28:33;11.60;94.20
5683;DHT22;2864;49.220;8.654;2022-09-17T19:31:02;11.50;94.30
5683;DHT22;2864;49.220;8.654;2022-09-17T19:33:28;11.50;94.00